Airfield :
LOGIN :

Register | Disclaimer

   EN    FR    IT 

 










Legend :    VFR   Marginal VFR   IFR   Intensive IFR   Very Intensive IFR
Visi :
Ceiling :
>= 8 km
>= 3000ft
5 to 8 km
1000 to 3000 ft
1500m to 5 km
500 to 1000 ft
800 to 1500m
200 to 500 ft
< 800m
< 200 ft
Symbols :   Thunderstorms  Fog  Heavy snow  Heavy precipitations  Wind > 20 kt
SIGMETs :     Misc.  Thunderstorms  Icing  Turbulence  Mountain Waves  Volcanic Ashes






- Airport Elevation : 425 ft
- IATA code : DTM


EDLW - Dortmund

CURRENT METAR :
  • 291050Z VRB02KT 9999 SCT029 13/06 Q1002

EXPIRED METARs :
  • 291020Z VRB01KT 9999 SCT026 12/07 Q1002
  • 290950Z VRB02KT 9999 FEW027 13/07 Q1002
  • 290920Z 28003KT 200V350 CAVOK 12/06 Q1002
  • 290850Z 19005KT CAVOK 11/07 Q1002
  • 290820Z 16006KT 9999 FEW031 10/07 Q1002

TAF TAF EDLW
Valid from the 29 at 06:00 until the 30 at 06:00 UTC


290500Z 2906/3006 17006KT 9999 SCT030
BECMG 2909/2912 24004KT
BECMG 2918/2921 18007KT



MET'MAP, your aeronautical weather chart ! - Copyright ORBIFLY December 2007 - Disclaimer

ORBIFLY MET'MAP TEAM :

Programming & Development : Alexandra Zaïnal
Original concept : Baudouin d'Aumeries
Technical & hardware support : Manuel Goepfert
Assistance : Marc-Olivier Méhu




SOURCES & CREDITS :

   NOAA